Time;durP1;ratioP1;P1;durP2;ratioP2;P2;SDS_P1;SDS_P2;PMS_P1;PMS_P2;Temp;Humidity;BMP_temperature;BMP_pressure;BME280_temperature;BME280_humidity;BME280_pressure;Samples;Min_cycle;Max_cycle;Signal;HPM_P1;HPM_P2
2021/11/18 00:02:04;;;;;;;20.17;8.13;;;;;;;5.68;100.00;102689.94;5076222;28;20028;-34
2021/11/18 00:04:30;;;;;;;29.43;9.73;;;;;;;5.63;100.00;102689.53;5075873;28;20028;-34
2021/11/18 00:06:56;;;;;;;17.27;8.55;;;;;;;5.65;100.00;102694.75;5076327;28;20078;-34
2021/11/18 00:09:22;;;;;;;21.80;9.30;;;;;;;5.57;100.00;102670.53;5076592;28;20108;-34
2021/11/18 00:11:50;;;;;;;;;;;;;;;5.66;100.00;102688.38;5076338;28;20278;-34
2021/11/18 00:14:16;;;;;;;23.67;8.65;;;;;;;5.62;100.00;102684.34;5075889;28;19920;-34
2021/11/18 00:16:42;;;;;;;28.63;10.82;;;;;;;5.60;100.00;102679.09;5076139;28;20024;-34
2021/11/18 00:19:07;;;;;;;20.00;9.67;;;;;;;5.67;100.00;102687.41;5076346;28;20038;-34
2021/11/18 00:21:39;;;;;;;22.67;9.90;;;;;;;5.59;100.00;102680.09;5075767;28;20035;-34
2021/11/18 00:24:06;;;;;;;25.38;9.05;;;;;;;5.54;100.00;102676.19;5075915;28;20038;-34
2021/11/18 00:26:32;;;;;;;19.80;9.00;;;;;;;5.49;100.00;102665.09;5075378;28;20472;-34
2021/11/18 00:28:59;;;;;;;29.00;10.38;;;;;;;5.61;100.00;102696.03;5076394;28;20104;-34
2021/11/18 00:31:30;;;;;;;27.52;9.60;;;;;;;5.59;100.00;102695.38;5075458;28;20032;-34
2021/11/18 00:33:56;;;;;;;22.92;8.82;;;;;;;5.50;100.00;102685.56;5075839;28;20031;-34
2021/11/18 00:36:22;;;;;;;;;;;;;;;5.62;100.00;102708.50;5076457;28;20025;-34
2021/11/18 00:38:48;;;;;;;;;;;;;;;5.63;100.00;102713.69;5076395;28;19927;-34
2021/11/18 00:41:13;;;;;;;;;;;;;;;5.65;100.00;102721.59;5075907;28;20364;-34
2021/11/18 00:43:39;;;;;;;;;;;;;;;5.66;100.00;102725.97;5076212;28;19974;-34
2021/11/18 00:46:04;;;;;;;;;;;;;;;5.66;100.00;102728.63;5075720;28;20390;-34
2021/11/18 00:48:30;;;;;;;;;;;;;;;5.67;100.00;102735.72;5076024;28;19912;-34
2021/11/18 00:50:55;;;;;;;;;;;;;;;5.67;100.00;102730.34;5075918;28;20395;-34
2021/11/18 00:53:21;;;;;;;;;;;;;;;5.68;100.00;102737.41;5075882;28;19912;-34
2021/11/18 00:55:46;;;;;;;;;;;;;;;5.69;100.00;102744.44;5076002;28;19919;-34
2021/11/18 00:58:12;;;;;;;;;;;;;;;5.69;100.00;102728.34;5075760;28;19912;-34
2021/11/18 01:00:38;;;;;;;;;;;;;;;5.71;100.00;102736.25;5075123;28;19963;-34
2021/11/18 01:03:03;;;;;;;;;;;;;;;5.70;100.00;102727.34;5075938;28;19921;-34
2021/11/18 01:05:30;;;;;;;;;;;;;;;5.71;100.00;102738.91;5075347;28;19935;-34
2021/11/18 01:07:56;;;;;;;;;;;;;;;5.71;100.00;102736.25;5075084;28;19916;-34
2021/11/18 01:10:22;;;;;;;;;;;;;;;5.67;100.00;102731.19;5074919;28;19918;-34
2021/11/18 01:12:48;;;;;;;;;;;;;;;5.66;100.00;102726.81;5075668;28;19984;-34
2021/11/18 01:15:15;;;;;;;;;;;;;;;5.62;100.00;102713.88;5074226;28;19924;-34
2021/11/18 01:17:41;;;;;;;;;;;;;;;5.59;100.00;102711.47;5075119;28;20022;-34
2021/11/18 01:20:06;;;;;;;;;;;;;;;5.54;100.00;102728.03;5075395;28;19913;-34
2021/11/18 01:22:32;;;;;;;;;;;;;;;5.53;100.00;102720.13;5075000;28;20380;-34
2021/11/18 01:24:57;;;;;;;;;;;;;;;5.52;100.00;102719.31;5074860;28;19965;-34
2021/11/18 01:27:23;;;;;;;;;;;;;;;5.51;100.00;102720.28;5074746;28;19912;-34
2021/11/18 01:29:48;;;;;;;;;;;;;;;5.48;100.00;102719.75;5075155;28;19920;-34
2021/11/18 01:32:14;;;;;;;;;;;;;;;5.47;100.00;102723.44;5075364;28;19920;-34
2021/11/18 01:34:39;;;;;;;;;;;;;;;5.45;100.00;102725.41;5075354;28;20330;-34
2021/11/18 01:37:04;;;;;;;;;;;;;;;5.42;100.00;102730.09;5074703;28;20332;-34
2021/11/18 01:39:29;;;;;;;;;;;;;;;5.42;100.00;102745.34;5074920;28;20379;-34
2021/11/18 01:41:55;;;;;;;;;;;;;;;5.38;100.00;102736.75;5074900;28;19916;-34
2021/11/18 01:44:32;;;;;;;;;;;;;;;5.37;100.00;102734.22;5074695;28;19912;-34
2021/11/18 01:46:58;;;;;;;;;;;;;;;5.36;100.00;102738.72;5075160;28;20008;-34
2021/11/18 01:49:24;;;;;;;;;;;;;;;5.36;100.00;102737.88;5075209;28;20336;-34
2021/11/18 01:51:50;;;;;;;;;;;;;;;5.36;100.00;102744.09;5075039;28;20372;-34
2021/11/18 01:54:16;;;;;;;;;;;;;;;5.37;100.00;102742.28;5074738;28;19913;-34
2021/11/18 01:56:42;;;;;;;;;;;;;;;5.37;100.00;102753.84;5074635;28;20344;-34
2021/11/18 01:59:16;;;;;;;;;;;;;;;5.35;100.00;102763.88;5074314;28;19923;-34
2021/11/18 02:01:43;;;;;;;;;;;;;;;5.37;100.00;102756.53;5073989;28;19918;-34
2021/11/18 02:04:10;;;;;;;;;;;;;;;5.39;100.00;102759.06;5074777;28;19923;-34
2021/11/18 02:06:38;;;;;;;;;;;;;;;5.38;100.00;102760.06;5074938;28;19912;-34
2021/11/18 02:09:08;;;;;;;;;;;;;;;5.39;100.00;102762.59;5074357;28;19916;-34
2021/11/18 02:11:39;;;;;;;;;;;;;;;5.39;100.00;102759.06;5074329;28;19913;-34
2021/11/18 02:14:05;;;;;;;;;;;;;;;5.40;100.00;102756.22;5074312;28;20427;-34
2021/11/18 02:16:31;;;;;;;;;;;;;;;5.40;100.00;102758.06;5074330;28;20355;-34
2021/11/18 02:18:56;;;;;;;;;;;;;;;5.41;100.00;102760.59;5074187;28;19919;-34
2021/11/18 02:21:22;;;;;;;;;;;;;;;5.40;100.00;102747.31;5073259;28;19926;-34
2021/11/18 02:23:55;;;;;;;;;;;;;;;5.39;100.00;102753.69;5073925;28;19912;-34
2021/11/18 02:26:22;;;;;;;;;;;;;;;5.38;100.00;102752.00;5074641;28;19966;-34
2021/11/18 02:28:48;;;;;;;;;;;;;;;5.39;100.00;102754.53;5074242;28;20273;-34
2021/11/18 02:31:30;;;;;;;;;;;;;;;5.42;100.00;102745.34;5073603;28;19912;-34
2021/11/18 02:33:56;;;;;;;;;;;;;;;5.41;100.00;102749.84;5073665;28;19965;-34
2021/11/18 02:36:22;;;;;;;;;;;;;;;5.40;100.00;102763.44;5073846;28;19912;-34
2021/11/18 02:38:47;;;;;;;;;;;;;;;5.38;100.00;102758.22;5073701;28;20371;-34
2021/11/18 02:41:14;;;;;;;;;;;;;;;5.36;100.00;102762.88;5074141;28;19919;-34
2021/11/18 02:43:40;;;;;;;;;;;;;;;5.35;100.00;102763.03;5074084;28;20328;-34
2021/11/18 02:46:06;;;;;;;;;;;;;;;5.35;100.00;102763.88;5073629;28;19913;-34
2021/11/18 02:48:31;;;;;;;;;;;;;;;5.36;100.00;102759.34;5073859;28;20261;-34
2021/11/18 02:50:57;;;;;;;;;;;;;;;5.33;100.00;102768.56;5073533;28;19973;-34
2021/11/18 02:53:24;;;;;;;;;;;;;;;5.31;100.00;102762.47;5073748;28;20019;-34
2021/11/18 02:55:50;;;;;;;;;;;;;;;5.30;100.00;102760.78;5073182;28;19913;-34
2021/11/18 02:58:16;;;;;;;;;;;;;;;5.27;100.00;102747.69;5073567;28;19916;-34
2021/11/18 03:00:45;;;;;;;;;;;;;;;5.28;100.00;102757.44;5073797;28;19919;-34
2021/11/18 03:03:10;;;;;;;;;;;;;;;5.30;100.00;102755.44;5073917;28;19916;-34
2021/11/18 03:05:35;;;;;;;;;;;;;;;5.30;100.00;102750.06;5073373;28;19912;-34
2021/11/18 03:08:01;;;;;;;;;;;;;;;5.28;100.00;102757.44;5073306;28;20352;-34
2021/11/18 03:10:28;;;;;;;;;;;;;;;5.28;100.00;102765.47;5073612;28;19959;-34
2021/11/18 03:12:53;;;;;;;;;;;;;;;5.29;100.00;102758.28;5073363;28;19912;-34
2021/11/18 03:15:19;;;;;;;;;;;;;;;5.30;100.00;102763.47;5073267;28;20309;-34
2021/11/18 03:17:44;;;;;;;;;;;;;;;5.32;100.00;102758.81;5073314;28;19912;-34
2021/11/18 03:20:11;;;;;;;;;;;;;;;5.33;100.00;102754.31;5073642;28;19912;-34
2021/11/18 03:22:36;;;;;;;;;;;;;;;5.33;100.00;102756.97;5072895;28;19958;-34
2021/11/18 03:25:02;;;;;;;;;;;;;;;5.35;100.00;102760.34;5073208;28;19966;-34
2021/11/18 03:27:27;;;;;;;;;;;;;;;5.37;100.00;102756.53;5072799;28;20414;-34
2021/11/18 03:29:52;;;;;;;;;;;;;;;5.39;100.00;102754.53;5072884;28;20348;-34
2021/11/18 03:32:18;;;;;;;;;;;;;;;5.41;100.00;102763.25;5073084;28;20015;-34
2021/11/18 03:34:43;;;;;;;;;;;;;;;5.42;100.00;102758.78;5076344;28;20007;-34
2021/11/18 03:37:08;;;;;;;;;;;;;;;5.45;100.00;102757.63;5077206;28;19969;-34
2021/11/18 03:39:33;;;;;;;;;;;;;;;5.46;100.00;102761.97;5077495;28;19958;-34
2021/11/18 03:42:01;;;;;;;;;;;;;;;5.47;100.00;102761.00;5076956;28;19920;-34
2021/11/18 03:44:26;;;;;;;;;;;;;;;5.51;100.00;102757.00;5076687;28;19943;-34
2021/11/18 03:46:53;;;;;;;;;;;;;;;5.53;100.00;102757.72;5076813;28;19919;-34
2021/11/18 03:49:19;;;;;;;;;;;;;;;5.54;100.00;102770.13;5076916;28;19970;-34
2021/11/18 03:51:46;;;;;;;;;;;;;;;5.56;100.00;102768.13;5076795;28;20296;-34
2021/11/18 03:54:12;;;;;;;;;;;;;;;5.60;100.00;102769.50;5077305;28;19970;-34
2021/11/18 03:56:41;;;;;;;;;;;;;;;5.63;100.00;102774.59;5076753;28;19916;-34
2021/11/18 03:59:10;;;;;;;;;;;;;;;5.65;100.00;102775.28;5076922;28;19919;-34
2021/11/18 04:01:36;;;;;;;;;;;;;;;5.65;100.00;102775.28;5076629;28;19977;-34
2021/11/18 04:04:06;;;;;;;;;;;;;;;5.69;100.00;102776.66;5076514;28;19917;-34
2021/11/18 04:06:31;;;;;;;;;;;;;;;5.71;100.00;102781.88;5076501;28;19913;-34
2021/11/18 04:08:56;;;;;;;;;;;;;;;5.72;100.00;102786.28;5076799;28;19919;-34
2021/11/18 04:11:21;;;;;;;;;;;;;;;5.73;100.00;102782.59;5076415;28;19918;-34
2021/11/18 04:13:46;;;;;;;;;;;;;;;5.74;100.00;102785.09;5076660;28;20320;-34
2021/11/18 04:16:12;;;;;;;;;;;;;;;5.74;100.00;102781.56;5076895;28;19916;-34
2021/11/18 04:18:37;;;;;;;;;;;;;;;5.75;100.00;102780.56;5076338;28;19912;-34
2021/11/18 04:21:02;;;;;;;;;;;;;;;5.76;100.00;102780.44;5076124;28;20058;-34
2021/11/18 04:23:28;;;;;;;;;;;;;;;5.74;100.00;102777.06;5076263;28;20088;-34
2021/11/18 04:25:53;;;;;;;;;;;;;;;5.74;100.00;102774.38;5076414;28;19974;-34
2021/11/18 04:28:18;;;;;;;;;;;;;;;5.76;100.00;102772.38;5076272;28;19920;-34
2021/11/18 04:30:52;;;;;;;;;;;;;;;5.75;100.00;102769.84;5076660;28;19912;-34
2021/11/18 04:33:17;;;;;;;;;;;;;;;5.76;100.00;102777.75;5076599;28;19919;-34
2021/11/18 04:35:43;;;;;;;;;;;;;;;5.76;100.00;102777.75;5076069;28;20015;-34
2021/11/18 04:38:08;;;;;;;;;;;;;;;5.78;100.00;102777.59;5076284;28;20352;-34
2021/11/18 04:40:34;;;;;;;;;;;;;;;5.79;100.00;102787.34;5075901;28;20007;-34
2021/11/18 04:43:00;;;;;;;;;;;;;;;5.79;100.00;102772.06;5076191;28;19995;-34
2021/11/18 04:45:25;;;;;;;;;;;;;;;5.81;100.00;102775.47;5075033;28;19912;-34
2021/11/18 04:47:50;;;;;;;;;;;;;;;5.82;100.00;102781.69;5075839;28;19913;-34
2021/11/18 04:50:16;;;;;;;;;;;;;;;5.81;100.00;102778.16;5076059;28;19912;-34
2021/11/18 04:52:42;;;;;;;;;;;;;;;5.80;100.00;102779.13;5076249;28;19912;-34
2021/11/18 04:55:08;;;;;;;;;;;;;;;5.80;100.00;102773.75;5076518;28;19935;-34
2021/11/18 04:57:33;;;;;;;;;;;;;;;5.78;100.00;102773.06;5075226;28;20011;-34
2021/11/18 04:59:58;;;;;;;;;;;;;;;5.78;100.00;102773.06;5076018;28;19912;-34
2021/11/18 05:02:24;;;;;;;;;;;;;;;5.76;100.00;102768.84;5075551;28;19912;-34
2021/11/18 05:04:52;;;;;;;;;;;;;;;5.75;100.00;102765.31;5076021;28;19912;-34
2021/11/18 05:07:17;;;;;;;;;;;;;;;5.74;100.00;102774.38;5075419;28;19916;-34
2021/11/18 05:09:43;;;;;;;;;;;;;;;5.72;100.00;102762.94;5075863;28;20257;-34
2021/11/18 05:12:08;;;;;;;;;;;;;;;5.72;100.00;102771.00;5075332;28;20011;-34
2021/11/18 05:14:33;;;;;;;;;;;;;;;5.71;100.00;102776.50;5073930;28;19999;-34
2021/11/18 05:16:59;;;;;;;;;;;;;;;5.68;100.00;102774.97;5074982;28;19919;-34
2021/11/18 05:19:25;;;;;;;;;;;;;;;5.65;100.00;102783.31;5075315;28;19919;-34
2021/11/18 05:21:51;;;;;;;;;;;;;;;5.64;100.00;102781.66;5075075;28;20023;-34
2021/11/18 05:24:16;;;;;;;;;;;;;;;5.64;100.00;102774.44;5075385;28;20045;-34
2021/11/18 05:26:41;;;;;;;;;;;;;;;5.63;100.00;102767.38;5074761;28;20295;-34
2021/11/18 05:29:06;;;;;;;;;;;;;;;5.59;100.00;102762.47;5075477;28;20256;-34
2021/11/18 05:31:32;;;;;;;;;;;;;;;5.56;100.00;102760.06;5074793;28;19913;-35
2021/11/18 05:33:58;;;;;;;;;;;;;;;5.53;100.00;102761.25;5075189;28;19916;-35
2021/11/18 05:36:23;;;;;;;;;;;;;;;5.51;100.00;102759.69;5074801;28;19913;-34
2021/11/18 05:38:49;;;;;;;;;;;;;;;5.49;100.00;102767.06;5074683;28;19931;-35
2021/11/18 05:41:15;;;;;;;;;;;;;;;5.49;100.00;102772.41;5074484;28;19913;-35
2021/11/18 05:43:42;;;;;;;;;;;;;;;5.49;100.00;102767.06;5074905;28;19919;-35
2021/11/18 05:46:08;;;;;;;;;;;;;;;5.47;100.00;102767.22;5075338;28;19916;-35
2021/11/18 05:48:33;;;;;;;;;;;;;;;5.47;100.00;102767.22;5075137;28;19921;-35
2021/11/18 05:51:00;;;;;;;;;;;;;;;5.49;100.00;102769.75;5074559;28;20007;-35
2021/11/18 05:53:29;;;;;;;;;;;;;;;5.49;100.00;102761.69;5075317;28;19912;-35
2021/11/18 05:55:54;;;;;;;;;;;;;;;5.50;100.00;102763.38;5074159;28;19912;-35
2021/11/18 05:58:19;;;;;;;;;;;;;;;5.50;100.00;102769.56;5074351;28;19981;-35
2021/11/18 06:00:45;;;;;;;;;;;;;;;5.51;100.00;102775.78;5074366;28;19912;-35
2021/11/18 06:03:10;;;;;;;;;;;;;;;5.50;100.00;102777.63;5074655;28;19919;-35
2021/11/18 06:05:35;;;;;;;;;;;;;;;5.52;100.00;102774.81;5074353;28;19912;-35
2021/11/18 06:08:01;;;;;;;;;;;;;;;5.53;100.00;102771.13;5074991;28;19920;-35
2021/11/18 06:10:27;;;;;;;;;;;;;;;5.53;100.00;102776.50;5074606;28;20360;-35
2021/11/18 06:12:52;;;;;;;;;;;;;;;5.54;100.00;102776.34;5074238;28;19988;-35
2021/11/18 06:15:18;;;;;;;;;;;;;;;5.55;100.00;102774.50;5074617;28;20014;-35
2021/11/18 06:17:44;;;;;;;;;;;;;;;5.56;100.00;102774.38;5074713;28;20295;-35
2021/11/18 06:20:10;;;;;;;;;;;;;;;5.59;100.00;102770.50;5074005;28;19948;-35
2021/11/18 06:22:36;;;;;;;;;;;;;;;5.58;100.00;102768.84;5073766;28;20373;-35
2021/11/18 06:25:02;;;;;;;;;;;;;;;5.58;100.00;102768.84;5073930;28;19918;-35
2021/11/18 06:27:28;;;;;;;;;;;;;;;5.58;100.00;102779.56;5074229;28;20342;-35
2021/11/18 06:29:53;;;;;;;;;;;;;;;5.58;100.00;102780.41;5073838;28;19912;-35
2021/11/18 06:32:19;;;;;;;;;;;;;;;5.59;100.00;102775.88;5073786;28;19919;-35
2021/11/18 06:34:44;;;;;;;;;;;;;;;5.63;100.00;102786.16;5073987;28;19912;-35
2021/11/18 06:37:10;;;;;;;;;;;;;;;5.62;100.00;102783.66;5073929;28;19941;-35
2021/11/18 06:39:37;;;;;;;;;;;;;;;5.64;100.00;102795.91;5073926;28;20011;-35
2021/11/18 06:42:04;;;;;;;;;;;;;;;5.63;100.00;102790.69;5074481;28;19984;-35
2021/11/18 06:44:30;;;;;;;;;;;;;;;5.65;100.00;102794.06;5073723;28;19912;-35
2021/11/18 06:46:55;;;;;;;;;;;;;;;5.67;100.00;102800.16;5073219;28;20371;-35
2021/11/18 06:49:20;;;;;;;;;;;;;;;5.68;100.00;102802.66;5073715;28;19913;-35
2021/11/18 06:51:46;;;;;;;;;;;;;;;5.71;100.00;102796.16;5072559;28;19912;-35
2021/11/18 06:54:13;;;;;;;;;;;;;;;5.71;100.00;102797.97;5073487;28;20287;-35
2021/11/18 06:56:38;;;;;;;;;;;;;;;5.71;100.00;102796.16;5073479;28;19917;-35
2021/11/18 06:59:03;;;;;;;;;;;;;;;5.72;100.00;102808.59;5074232;28;20014;-35
2021/11/18 07:01:29;;;;;;;;;;;;;;;5.70;100.00;102805.19;5073174;28;19919;-35
2021/11/18 07:03:55;;;;;;;;;;;;;;;5.69;100.00;102804.34;5073257;28;19920;-35
2021/11/18 07:06:21;;;;;;;;;;;;;;;5.71;100.00;102806.91;5073393;28;19919;-35
2021/11/18 07:08:47;;;;;;;;;;;;;;;5.72;100.00;102815.78;5072928;28;19912;-35
2021/11/18 07:11:13;;;;;;;;;;;;;;;5.72;100.00;102805.91;5073372;28;19913;-35
2021/11/18 07:13:39;;;;;;;;;;;;;;;5.73;100.00;102809.44;5073035;28;20384;-35
2021/11/18 07:16:06;;;;;;;;;;;;;;;5.73;100.00;102804.06;5073402;28;19919;-35
2021/11/18 07:18:31;;;;;;;;;;;;;;;5.73;100.00;102804.91;5073354;28;19923;-35
2021/11/18 07:20:57;;;;;;;;;;;;;;;5.73;100.00;102804.91;5073222;28;20352;-35
2021/11/18 07:23:23;;;;;;;;;;;;;;;5.74;100.00;102803.06;5073262;28;20349;-35
2021/11/18 07:25:50;;;;;;;;;;;;;;;5.74;100.00;102808.44;5073301;28;19916;-35
2021/11/18 07:28:15;;;;;;;;;;;;;;;5.74;100.00;102817.31;5073245;28;19912;-35
2021/11/18 07:30:43;;;;;;;;;;;;;;;5.76;100.00;102818.03;5073270;28;19989;-35
2021/11/18 07:33:09;;;;;;;;;;;;;;;5.77;100.00;102816.19;5073544;28;19951;-35
2021/11/18 07:35:34;;;;;;;;;;;;;;;5.79;100.00;102824.91;5073491;28;19985;-35
2021/11/18 07:37:59;;;;;;;;;;;;;;;5.80;100.00;102831.97;5073486;28;19965;-35
2021/11/18 07:40:25;;;;;;;;;;;;;;;5.79;100.00;102836.50;5072759;28;19968;-35
2021/11/18 07:42:50;;;;;;;;;;;;;;;5.79;100.00;102847.25;5073311;28;19912;-35
2021/11/18 07:45:17;;;;;;;;;;;;;;;5.81;100.00;102850.63;5073109;28;19978;-35
2021/11/18 07:47:42;;;;;;;;;;;;;;;5.84;100.00;102852.16;5073616;28;19919;-35
2021/11/18 07:50:08;;;;;;;;;;;;;;;5.84;100.00;102855.69;5072763;28;19916;-35
2021/11/18 07:52:35;;;;;;;;;;;;;;;5.85;100.00;102856.53;5072743;28;19917;-35
2021/11/18 07:55:00;;;;;;;;;;;;;;;5.87;100.00;102855.41;5072750;28;20441;-35
2021/11/18 07:57:25;;;;;;;;;;;;;;;5.88;100.00;102866.97;5072962;28;20012;-35
2021/11/18 07:59:50;;;;;;;;;;;;;;;5.88;100.00;102873.19;5073643;28;20367;-35
2021/11/18 08:02:15;;;;;;;;;;;;;;;5.92;100.00;102877.31;5072615;28;19920;-35
2021/11/18 08:04:41;;;;;;;;;;;;;;;5.94;100.00;102871.78;5072889;28;19916;-35
2021/11/18 08:07:07;;;;;;;;;;;;;;;5.97;100.00;102879.53;5072786;28;19919;-35
2021/11/18 08:09:33;;;;;;;;;;;;;;;5.98;100.00;102875.84;5073404;28;19921;-35
2021/11/18 08:12:03;;;;;;;;;;;;;;;5.99;100.00;102880.22;5072598;28;19923;-35
2021/11/18 08:14:28;;;;;;;;;;;;;;;5.99;100.00;102869.47;5072987;28;20344;-35
2021/11/18 08:16:54;;;;;;;;;;;;;;;6.01;100.00;102862.13;5073122;28;19939;-35
2021/11/18 08:19:19;;;;;;;;;;;;;;;6.03;100.00;102868.19;5073913;28;20288;-35
2021/11/18 08:21:46;;;;;;;;;;;;;;;6.03;100.00;102870.88;5076346;28;19912;-35
2021/11/18 08:24:12;;;;;;;;;;;;;;;6.06;100.00;102875.09;5076304;28;19916;-35
2021/11/18 08:26:38;;;;;;;;;;;;;;;6.08;100.00;102865.88;5076830;28;19938;-35
2021/11/18 08:29:04;;;;;;;;;;;;;;;6.10;100.00;102866.59;5076345;28;19912;-35
2021/11/18 08:31:29;;;;;;;;;;;;;;;6.12;100.00;102858.38;5076700;28;19975;-35
2021/11/18 08:33:55;;;;;;;;;;;;;;;6.16;100.00;102874.03;5076396;28;19912;-35
2021/11/18 08:36:20;;;;;;;;;;;;;;;6.17;100.00;102864.97;5076381;28;20352;-35
2021/11/18 08:38:46;;;;;;;;;;;;;;;6.21;100.00;102862.84;5076900;28;19995;-35
2021/11/18 08:41:11;;;;;;;;;;;;;;;6.22;100.00;102851.09;5076062;28;19919;-35
2021/11/18 08:43:38;;;;;;;;;;;;;;;6.25;100.00;102848.09;5076844;28;20304;-35
2021/11/18 08:46:04;;;;;;;;;;;;;;;6.29;100.00;102845.94;5075912;28;19912;-35
2021/11/18 08:48:31;;;;;;;;;;;;;;;6.27;100.00;102835.34;5076301;28;20274;-35
2021/11/18 08:50:57;;;;;;;;;;;;;;;6.31;100.00;102841.25;5075869;28;19913;-35
2021/11/18 08:53:24;;;;;;;;;;;;;;;6.31;100.00;102836.72;5076176;28;19912;-35
2021/11/18 08:55:49;;;;;;;;;;;;;;;6.32;100.00;102849.16;5075425;28;19912;-35
2021/11/18 08:58:17;;;;;;;;;;;;;;;6.33;100.00;102850.84;5075857;28;19916;-35
2021/11/18 09:00:44;;;;;;;;;;;;;;;6.33;100.00;102850.00;5075667;28;19913;-35
2021/11/18 09:03:09;;;;;;;;;;;;;;;6.33;100.00;102855.38;5076408;28;20233;-35
2021/11/18 09:05:35;;;;;;;;;;;;;;;6.31;100.00;102852.84;5076090;28;20007;-35
2021/11/18 09:08:02;;;;;;;;;;;;;;;6.33;100.00;102864.28;5075622;28;20264;-35
2021/11/18 09:10:27;;;;;;;;;;;;;;;6.34;100.00;102857.06;5075573;28;19912;-35
2021/11/18 09:12:54;;;;;;;;;;;;;;;6.39;100.00;102866.38;5075193;28;19935;-35
2021/11/18 09:15:20;;;;;;;;;;;;;;;6.44;100.00;102864.06;5076718;28;19939;-35
2021/11/18 09:17:47;;;;;;;;;;;;;;;6.48;100.00;102871.81;5075893;28;19920;-35
2021/11/18 09:20:14;;;;;;;;;;;;;;;6.52;100.00;102871.34;5076104;28;19912;-35
2021/11/18 09:22:39;;;;;;;;;;;;;;;6.54;100.00;102869.34;5075175;28;19912;-35
2021/11/18 09:25:06;;;;;;;;;;;;;;;6.62;100.00;102873.94;5076083;28;19920;-35
2021/11/18 09:27:34;;;;;;;;;;;;;;;6.70;100.00;102874.03;5075150;28;19913;-35
2021/11/18 09:30:02;;;;;;;;;;;;;;;6.79;100.00;102873.09;5075695;28;19913;-35
2021/11/18 09:32:29;;;;;;;;;;;;;;;6.86;100.00;102866.06;5074852;28;19912;-35
2021/11/18 09:34:55;;;;;;;;;;;;;;;6.91;100.00;102871.81;5075528;28;20340;-35
2021/11/18 09:37:20;;;;;;;;;;;;;;;7.00;100.00;102885.34;5075230;28;19912;-35
2021/11/18 09:39:45;;;;;;;;;;;;;;;7.05;100.00;102885.69;5075659;28;19920;-35
2021/11/18 09:42:14;;;;;;;;;;;;;;;7.13;100.00;102881.22;5075183;28;20272;-35
2021/11/18 09:45:04;;;;;;;;;;;;;;;7.19;100.00;102894.03;5074525;28;19919;-35
2021/11/18 09:47:58;;;;;;;;;;;;;;;7.28;100.00;102899.47;5075549;28;19919;-35
2021/11/18 09:50:35;;;;;;;;;;;;;;;7.38;100.00;102911.81;5075312;28;19912;-35
2021/11/18 09:53:25;;;;;;;;;;;;;;;7.46;100.00;102905.63;5075003;28;19957;-35
2021/11/18 09:55:58;;;;;;;;;;;;;;;7.55;100.00;102909.19;5075005;28;19912;-35
2021/11/18 09:58:53;;;;;;;;;;;;;;;7.63;100.00;102911.94;5074885;28;19919;-35
2021/11/18 10:01:37;;;;;;;;;;;;;;;7.72;100.00;102914.50;5092816;28;19965;-35
2021/11/18 10:04:21;;;;;;;;;;;;;;;7.77;99.33;102916.72;5092676;28;19916;-35
2021/11/18 10:06:51;;;;;;;;;;;;;;;7.85;99.86;102915.91;5092627;28;19950;-35
2021/11/18 10:09:37;;;;;;;;;;;;;;;7.93;99.62;102926.72;5092388;28;19911;-35
2021/11/18 10:12:22;;;;;;;;;;;;;;;8.03;99.73;102916.63;5092924;28;19970;-35
2021/11/18 10:14:50;;;;;;;;;;;;;;;8.10;97.47;102903.34;5092298;28;20342;-35
2021/11/18 10:17:17;;;;;;;;;;;;;;;8.15;97.90;102898.31;5092794;28;19934;-35
2021/11/18 10:19:45;;;;;;;;;;;;;;;8.20;98.05;102904.06;5092795;28;19912;-35
2021/11/18 10:22:10;;;;;;;;;;;;;;;8.28;97.81;102901.38;5092143;28;20011;-35
2021/11/18 10:24:38;;;;;;;;;;;;;;;8.35;98.27;102894.31;5092285;28;20401;-35
2021/11/18 10:27:15;;;;;;;;;;;;;;;8.44;97.47;102898.75;5091986;28;19951;-35
2021/11/18 10:30:12;;;;;;;;;;;;;;;8.52;97.22;102885.25;5092038;28;19912;-35
2021/11/18 10:32:56;;;;;;;;;;;;;;;8.64;96.95;102890.34;5012723;28;20019;-35
2021/11/18 10:35:27;;;;;;;;;;;;;;;8.73;96.20;102881.22;5012308;28;19914;-35
2021/11/18 10:38:09;;;;;;;;;;;;;;;8.82;95.38;102882.91;5012331;28;20365;-35
2021/11/18 10:40:34;;;;;;;;;;;;;;;8.93;94.11;102877.16;5012034;28;19936;-35
2021/11/18 10:43:02;;;;;;;;;;;;;;;8.97;93.12;102874.94;5011618;28;19914;-35
2021/11/18 10:45:27;;;;;;;;;;;;;;;9.02;93.97;102873.41;5012110;28;20071;-35
2021/11/18 10:48:01;;;;;;;;;;;;;;;9.08;92.85;102871.91;5012551;28;20008;-35
2021/11/18 10:50:32;;;;;;;;;;;;;;;9.06;92.53;102865.00;5012060;28;19913;-35
2021/11/18 10:53:21;;;;;;;;;;;;;;;8.99;91.72;102865.69;5012023;28;19940;-35
2021/11/18 10:55:48;;;;;;;;;;;;;;;8.92;91.85;102872.75;4972779;28;19920;-35
2021/11/18 10:58:25;;;;;;;;;;;;;;;8.85;91.58;102874.47;4972867;28;19969;-35
2021/11/18 11:00:55;;;;;;;;;;;;;;;8.83;92.70;102881.03;4972643;28;19921;-35
2021/11/18 11:03:25;;;;;;;;;;;;;;;8.82;92.99;102879.34;4972845;28;19914;-35
2021/11/18 11:06:06;;;;;;;;;;;;;;;8.82;93.65;102864.00;4972586;28;20389;-35
2021/11/18 11:08:31;;;;;;;;;;;;;;;8.89;91.42;102853.41;5009655;28;19913;-35
2021/11/18 11:10:59;;;;;;;;;;;;;;;8.96;92.67;102857.09;5031189;28;19913;-35
2021/11/18 11:13:38;;;;;;;;;;;;;;;9.04;91.74;102848.97;5031184;28;19913;-35
2021/11/18 11:16:11;;;;;;;;;;;;;;;9.14;92.07;102846.94;5031593;28;19924;-35
2021/11/18 11:18:58;;;;;;;;;;;;;;;9.25;92.60;102843.00;5031772;28;19913;-35
2021/11/18 11:21:32;;;;;;;;;;;;;;;9.32;90.63;102848.56;5031393;28;19959;-35
2021/11/18 11:24:09;;;;;;;;;;;;;;;9.32;88.03;102833.22;5031145;28;19960;-35
2021/11/18 11:26:46;;;;;;;;;;;;;;;9.38;89.85;102837.91;5031198;28;20253;-35
2021/11/18 11:29:11;;;;;;;;;;;;;;;9.45;88.73;102841.59;5031045;28;19913;-35
2021/11/18 11:31:52;;;;;;;;;;;;;;;9.51;89.86;102848.97;5032606;28;19967;-35
2021/11/18 11:34:33;;;;;;;;;;;;;;;9.59;87.99;102847.28;5073650;28;19923;-35
2021/11/18 11:36:58;;;;;;;;;;;;;;;9.61;85.89;102845.22;5073363;28;19923;-35
2021/11/18 11:39:37;;;;;;;;;;;;;;;9.64;87.41;102845.72;5072877;28;19913;-35
2021/11/18 11:42:17;;;;;;;;;;;;;;;9.72;87.89;102834.06;5073300;28;20428;-35
2021/11/18 11:45:01;;;;;;;;;;;;;;;9.76;86.23;102832.66;5073516;28;19966;-35
2021/11/18 11:47:41;;;;;;;;;;;;;;;9.80;86.42;102831.28;5073125;28;20002;-35
2021/11/18 11:50:06;;;;;;;;;;;;;;;9.85;84.84;102825.34;5073529;28;19970;-35
2021/11/18 11:52:32;;;;;;;;;;;;;;;9.89;85.91;102821.28;5072803;28;19912;-35
2021/11/18 11:55:16;;;;;;;;;;;;;;;9.93;87.03;102826.16;5075877;28;19916;-35
2021/11/18 11:57:48;;;;;;;;;;;;;;;9.97;85.47;102824.78;5076627;28;19926;-35
2021/11/18 12:00:13;;;;;;;;;;;;;;;9.99;82.43;102819.19;5076828;28;19916;-35
2021/11/18 12:02:57;;;;;;;;;;;;;;;10.01;83.36;102825.28;5076757;28;19913;-35
2021/11/18 12:05:42;;;;;;;;;;;;;;;10.03;83.96;102820.50;5077361;28;20357;-36
2021/11/18 12:08:12;;;;;;;;;;;;;;;10.04;81.61;102823.03;5095304;28;19922;-35
2021/11/18 12:10:52;;;;;;;;;;;;;;;10.10;84.15;102823.34;5095134;28;19919;-36
2021/11/18 12:13:18;;;;;;;;;;;;;;;10.14;83.24;102816.56;5094590;28;20002;-35
2021/11/18 12:15:47;;;;;;;;;;;;;;;10.17;82.92;102818.91;5095194;28;19947;-35
2021/11/18 12:18:16;;;;;;;;;;;;;;;10.22;84.50;102827.31;5094499;28;19961;-35
2021/11/18 12:20:41;;;;;;;;;;;;;;;10.26;84.05;102820.56;5094392;28;19919;-35
2021/11/18 12:23:08;;;;;;;;;;;;;;;10.28;83.45;102807.69;5095367;28;20284;-35
2021/11/18 12:25:33;;;;;;;;;;;;;;;10.30;83.66;102808.38;5094404;28;19955;-36
2021/11/18 12:28:01;;;;;;;;;;;;;;;10.31;83.67;102797.34;5095089;28;19912;-35
2021/11/18 12:30:29;;;;;;;;;;;;;;;10.32;82.74;102795.50;5094901;28;19912;-36
2021/11/18 12:33:09;;;;;;;;;;;;;;;10.31;83.02;102794.66;5094279;28;19919;-35
2021/11/18 12:35:40;;;;;;;;;;;;;;;10.36;84.28;102790.56;5094626;28;19919;-35
2021/11/18 12:38:14;;;;;;;;;;;;;;;10.39;83.65;102788.31;5094061;28;19964;-36
2021/11/18 12:40:58;;;;;;;;;;;;;;;10.37;83.18;102776.03;5094281;28;19962;-36